http://www.ohio.gov http://www.dot.state.oh.us
W W W . B U C K E Y E T R A F F I C . O R G

1-SR49 @ SR249 (200000) Status Air Temp Sfc Temp Sub Temp Dew Temp Wind Precip Traffic Updated
Sensor [A]: Atmospheric - 38.5 - - 31.1 3.1 / N - - 4/26/2015 2:02:00 AM
Sensor [0]: SR49 NB Lane Wet - 45.5 - - - - 0 / 9.9 4/26/2015 2:02:00 AM
Sensor [1]: SR 249 EB Lane Wet - 45.5 - - - - 0 / 9.9 4/26/2015 2:02:00 AM
2-SR-309 @ SR-235 (200001) Status Air Temp Sfc Temp Sub Temp Dew Temp Wind Precip Traffic Updated
Sensor [A]: Atmospheric - 39.4 - - 31.1 8.7 / N - - 4/26/2015 2:01:00 AM
Sensor [0]: SR309 EB Dry - 41.9 57.2 - - - - 4/26/2015 2:01:00 AM
Sensor [1]: SR235 SB Trace Moisture - 47.3 - - - - - 4/26/2015 2:01:00 AM
3-US24 @ Indiana Line (200002) Status Air Temp Sfc Temp Sub Temp Dew Temp Wind Precip Traffic Updated
Sensor [A]: Atmospheric - 40.6 - - 30.4 6.8 / NE - - 4/26/2015 2:02:04 AM
Sensor [0]: EB Driving Trace Moisture - 45.5 54.5 - - - 0 / 9.9 4/26/2015 2:02:04 AM
Sensor [1]: WB Driving Dry - 45.5 - - - - 0 / 9.9 4/26/2015 2:02:04 AM
4-US224 @ SR190 (200003) Status Air Temp Sfc Temp Sub Temp Dew Temp Wind Precip Traffic Updated
Sensor [A]: Atmospheric - 40.8 - - 34.2 6.8 / W - - 4/26/2015 2:00:28 AM
Sensor [0]: Eastbound Driving Lane Dry - 41.9 - - - - 1 / 65.2 4/26/2015 2:00:28 AM
5- US30 @ SR49 North (200004) Status Air Temp Sfc Temp Sub Temp Dew Temp Wind Precip Traffic Updated
Sensor [A]: Atmospheric - 39.2 - - 36.9 5.6 / NW - - 4/26/2015 2:02:55 AM
Sensor [0]: US30 Westbound Driving Dry - 43.7 - - - - 1 / 9.9 4/26/2015 2:02:55 AM
Sensor [1]: US30 Eastbound Driving Wet - 43.7 - - - - 1 / 9.9 4/26/2015 2:02:55 AM
6-US 30/23 @ E. Wyandot Ave. (MM 16.3) (200005) Status Air Temp Sfc Temp Sub Temp Dew Temp Wind Precip Traffic Updated
Sensor [A]: Atmospheric - 40.1 - - 30.7 7.5 / N - - 4/26/2015 2:02:57 AM
Sensor [1]: US23 NB Passing Lane Bridge Deck Trace Moisture - 45.5 - - - - 0 / 9.9 4/26/2015 2:02:57 AM
Sensor [3]: US23 SB Driving Lane Dry - 47.3 - - - - 0 / 9.9 4/26/2015 2:02:57 AM
7-US30 Bypass @ SR4 (200006) Status Air Temp Sfc Temp Sub Temp Dew Temp Wind Precip Traffic Updated
Sensor [A]: Atmospheric - 39.0 - - 30.9 5.0 / NE - - 4/26/2015 2:00:40 AM
Sensor [0]: US30 East Bound Driving Lane No Report - - - - - - 20 / 60.9 4/26/2015 2:00:40 AM
Sensor [1]: US30 West Bound Driving Lane Dry - 42.4 - - - - 80 / 158.4 4/26/2015 2:00:40 AM
8-Huron County Garage (200007) Status Air Temp Sfc Temp Sub Temp Dew Temp Wind Precip Traffic Updated
Sensor [A]: Atmospheric - 39.9 - - 31.6 - - - 4/26/2015 2:00:29 AM
9-I77 MM 109 @ Belden Village (200008) Status Air Temp Sfc Temp Sub Temp Dew Temp Wind Precip Traffic Updated
Sensor [A]: Atmospheric - 42.4 - - 25.9 4.3 / E - - 4/26/2015 2:02:12 AM
Sensor [0]: Ramp Bridge over I-77 Trace Moisture - 50.9 56.3 - - - 0 / 9.9 4/26/2015 2:02:12 AM
Sensor [1]: Bridgedeck over I-77 Trace Moisture - 47.3 - - - - 0 / 9.9 4/26/2015 2:02:12 AM
10-SR5@SR45 (200009) Status Air Temp Sfc Temp Sub Temp Dew Temp Wind Precip Traffic Updated
Sensor [A]: Atmospheric - 41.7 - - 25.9 3.7 / NW - - 4/26/2015 2:00:34 AM
Sensor [0]: EB Driving Dry - 43.7 56.3 - - - - 4/26/2015 2:00:34 AM
Sensor [1]: SR5 EB Passing Dry - 45.5 - - - - - 4/26/2015 2:00:34 AM
Sensor [2]: SR5 WB Passing Bridgedeck Dry - 43.7 - - - - - 4/26/2015 2:00:34 AM
Sensor [3]: SR5 EB passing Bridgedeck Dry - 47.3 - - - - - 4/26/2015 2:00:34 AM
11-SR36@SR206 (200010) Status Air Temp Sfc Temp Sub Temp Dew Temp Wind Precip Traffic Updated
Sensor [A]: Atmospheric - 39.7 - - 37.6 3.1 / NW - - 4/25/2015 11:30:59 PM
Sensor [0]: US36 EB Trace Moisture - 43.7 - - - - - 4/25/2015 11:30:59 PM
Sensor [1]: US36 WB Wet - 47.3 - - - - - 4/25/2015 11:30:59 PM
12- US 33 @ MM 11.5 (200011) Status Air Temp Sfc Temp Sub Temp Dew Temp Wind Precip Traffic Updated
Sensor [A]: Atmospheric - 42.8 - - 39.0 6.2 / N - - 4/26/2015 2:02:40 AM
Sensor [0]: US33 EB Driving Dry - 46.9 55.0 - - - - 4/26/2015 2:02:40 AM
Sensor [1]: US33 WB Driving Lane Bridgedeck Dry - 43.9 - - - - - 4/26/2015 2:02:40 AM
13-Knox County Garage (200012) Status Air Temp Sfc Temp Sub Temp Dew Temp Wind Precip Traffic Updated
Sensor [A]: Atmospheric - 41.2 - - 31.1 - - - 4/26/2015 2:02:14 AM
Sensor [0]: SR-3 NB Driving Dry - 47.3 56.3 - - - 0 / 9.9 4/26/2015 2:02:14 AM
14-SR 13 @ TR 37 Sheridan Rd (MM 32.6) (200013) Status Air Temp Sfc Temp Sub Temp Dew Temp Wind Precip Traffic Updated
Sensor [A]: Atmospheric - 41.9 - - 35.6 6.2 / N - - 4/26/2015 2:02:16 AM
Sensor [0]: SR13 Eastbound Dry - 45.5 - - - - - 4/26/2015 2:02:16 AM
Sensor [1]: SR13 Westbound Dry - 47.3 - - - - - 4/26/2015 2:02:16 AM
15-US35 @ SR62 (200014) Status Air Temp Sfc Temp Sub Temp Dew Temp Wind Precip Traffic Updated
Sensor [A]: Atmospheric - 42.8 - - 23.0 13.7 / NE - - 4/26/2015 2:03:11 AM
Sensor [0]: US35 EB Driving Dry - 45.5 45.5 - - - - 4/26/2015 2:03:11 AM
Sensor [1]: US35 WB Driving Dry - 43.7 - - - - - 4/26/2015 2:03:11 AM
Sensor [2]: SR62 NB Bridgedeck Dry - 41.9 - - - - - 4/26/2015 2:03:11 AM
Sensor [4]: US35 EB Driving Dry - 45.5 - - - - - 4/26/2015 2:03:11 AM
16-SR-752 @ 1.3 Pickaway County (200015) Status Air Temp Sfc Temp Sub Temp Dew Temp Wind Precip Traffic Updated
Sensor [A]: Atmospheric - 43.3 - - 36.3 6.2 / N - - 4/26/2015 2:00:34 AM
17-US23 @ E. Fairground Road Overpass (200016) Status Air Temp Sfc Temp Sub Temp Dew Temp Wind Precip Traffic Updated
Sensor [A]: Atmospheric - 39.2 - - 32.5 10.6 / NE - - 4/26/2015 2:00:12 AM
Sensor [0]: US23 NorthBound Passing Approach Dry - 41.0 - - - - - 4/26/2015 2:00:12 AM
Sensor [1]: US23 SouthBound Passing Bridgedeck No Report - - - - - - 34 / 57.2 4/26/2015 2:00:12 AM
18-US33 @ SR739 (200017) Status Air Temp Sfc Temp Sub Temp Dew Temp Wind Precip Traffic Updated
Sensor [A]: Atmospheric - 38.8 - - 30.9 6.8 / E - - 4/26/2015 2:00:44 AM
Sensor [0]: US33 EB Driving Wet - 40.1 45.5 - - - - 4/26/2015 2:00:44 AM
Sensor [1]: US33 EB Passing Dry - 40.1 - - - - - 4/26/2015 2:00:44 AM
Sensor [2]: US33 WB Driving Dry - 43.7 - - - - - 4/26/2015 2:00:44 AM
Sensor [3]: SR739 NB Bridgedeck Dry - 43.7 - - - - - 4/26/2015 2:00:44 AM
Sensor [4]: US33 EB Driving Shade Trace Moisture - 43.7 - - - - - 4/26/2015 2:00:44 AM
19-US 68 near Clark Co. Line (MM 0.7) (200018) Status Air Temp Sfc Temp Sub Temp Dew Temp Wind Precip Traffic Updated
Sensor [A]: Atmospheric - 39.9 - - 31.3 8.1 / E - - 4/26/2015 2:04:42 AM
Sensor [0]: US68 SB Driving Lane Dry - 42.6 44.1 - - - - 4/26/2015 2:04:42 AM
Sensor [1]: US68 NB Driving Lane Wet - 45.7 - - - - - 4/26/2015 2:04:42 AM
Sensor [2]: US68 NB Driving Lane Bridgedeck Dry - 45.1 - - - - - 4/26/2015 2:04:42 AM
20-SR 502 @ CR 30 Palestine-Union City Rd (MM 3.3) (200019) Status Air Temp Sfc Temp Sub Temp Dew Temp Wind Precip Traffic Updated
Sensor [A]: Atmospheric - 43.5 - - 42.8 10.6 / NE - - 4/25/2015 7:21:58 PM
Sensor [0]: SR502 EB Lane Dry - 50.9 57.2 - - - 0 / 9.9 4/25/2015 7:21:58 PM
21-US33 @ SR540 (200020) Status Air Temp Sfc Temp Sub Temp Dew Temp Wind Precip Traffic Updated
Sensor [A]: Atmospheric - 37.6 - - 28.8 6.8 / NW - - 4/26/2015 1:21:17 AM
Sensor [0]: US-33 East Bound Driving Lane Dry - 43.7 54.5 - - - 3 / 55.9 4/26/2015 1:21:17 AM
Sensor [1]: US-33 West Bound Passing Lane Wet - 43.7 - - - - 0 / 52.2 4/26/2015 1:21:17 AM
22-SR 29 @ Hickory Branch Creek (MM 1.6) (200021) Status Air Temp Sfc Temp Sub Temp Dew Temp Wind Precip Traffic Updated
Sensor [A]: Atmospheric - 40.3 - - 30.6 8.1 / NE - - 4/26/2015 2:01:29 AM
Sensor [0]: SR29 EB Lane No Report - - - - - - 0 / 5.0 4/26/2015 2:01:29 AM
23-SR41 @ SR136 Adams County (200022) Status Air Temp Sfc Temp Sub Temp Dew Temp Wind Precip Traffic Updated
Sensor [A]: Atmospheric - 42.6 - - 41.5 0.6 / N Rain / 0.0 - 4/26/2015 2:03:27 AM
Sensor [0]: SR136 NB Lane Trace Moisture - 49.1 57.2 - - - - 4/26/2015 2:03:27 AM
Sensor [1]: SR136 SB Lane Trace Moisture - 47.3 - - - - - 4/26/2015 2:03:27 AM
24-US68@SR125 (200023) Status Air Temp Sfc Temp Sub Temp Dew Temp Wind Precip Traffic Updated
Sensor [A]: Atmospheric - 43.7 - - -9.2 4.3 / S - - 4/26/2015 1:28:45 AM
Sensor [0]: NB US68 Wet - 45.5 - - - - - 4/26/2015 1:28:45 AM
Sensor [1]: SB US68 Wet - 49.1 - - - - - 4/26/2015 1:28:45 AM
25-SR73 South of TR 409 (MM 4.2) (200024) Status Air Temp Sfc Temp Sub Temp Dew Temp Wind Precip Traffic Updated
Sensor [A]: Atmospheric - 42.6 - - 39.6 3.1 / NE - - 4/26/2015 2:03:05 AM
26-SR 32 @ TR 255 Rice Road (MM 14.6) (200025) Status Air Temp Sfc Temp Sub Temp Dew Temp Wind Precip Traffic Updated
Sensor [A]: Atmospheric - 44.1 - - 40.5 3.7 / NE - - 4/26/2015 2:03:06 AM
Sensor [0]: US 35 WB Driving Lane Dry - 45.5 47.3 - - - 2 / 60.9 4/26/2015 2:03:06 AM
Sensor [1]: US 35 EB Driving Lane Dry - 45.5 - - - - 2 / 55.9 4/26/2015 2:03:06 AM
Sensor [2]: SR32 Eastbound Driving Lane Bridgedeck Dry - 47.3 - - - - 1 / 47.2 4/26/2015 2:03:06 AM
Sensor [3]: SR32 Westbound Passing Lane Approach Dry - 43.7 - - - - 0 / 65.2 4/26/2015 2:03:06 AM
27-US52 @ Ice Creek (200026) Status Air Temp Sfc Temp Sub Temp Dew Temp Wind Precip Traffic Updated
Sensor [A]: Atmospheric - 44.6 - - 42.3 0.6 / NW - - 4/26/2015 2:02:09 AM
Sensor [0]: SR52 EB Driving Approach Dry - 50.9 59.0 - - - 0 / 9.9 4/26/2015 2:02:09 AM
Sensor [1]: SR52 WB Driving Bridgedeck Dry - 47.3 - - - - 0 / 9.9 4/26/2015 2:02:09 AM
28-US23 @ SLM 6.5 (200027) Status Air Temp Sfc Temp Sub Temp Dew Temp Wind Precip Traffic Updated
Sensor [A]: Atmospheric - 44.2 - - 41.9 6.8 / S Rain / 0.0 - 4/26/2015 2:00:03 AM
Sensor [0]: US23 NB Driving Dry - 47.5 58.3 - - - - 4/26/2015 2:00:03 AM
Sensor [1]: US23 SB Driving Dry - 47.7 - - - - - 4/26/2015 2:00:03 AM
29-US 35 @Ross County Garage (MM 16.8) (200028) Status Air Temp Sfc Temp Sub Temp Dew Temp Wind Precip Traffic Updated
Sensor [A]: Atmospheric - 44.1 - - 41.2 4.3 / NW - - 4/26/2015 2:03:46 AM
Sensor [0]: US35 EB Driving No Report - - - - - - 35 / 62.8 4/26/2015 2:03:46 AM
Sensor [1]: US35 WB Driving No Report - - - - - - 0 / 47.2 4/26/2015 2:03:46 AM
30-US 23 @Scioto County Garage (MM 9.7) (200029) Status Air Temp Sfc Temp Sub Temp Dew Temp Wind Precip Traffic Updated
Sensor [A]: Atmospheric - 44.6 - - 40.5 0.6 / N - - 4/26/2015 2:01:19 AM
Sensor [0]: US23 NB Driving Trace Moisture - 49.1 - - - - 0 / 9.9 4/26/2015 2:01:19 AM
Sensor [1]: US23 SB Driving Trace Moisture - 49.1 57.2 - - - 0 / 9.9 4/26/2015 2:01:19 AM
31-USR 50 MM 17.68 (200030) Status Air Temp Sfc Temp Sub Temp Dew Temp Wind Precip Traffic Updated
Sensor [A]: Atmospheric - 44.1 - - 40.6 - - - 4/26/2015 1:30:37 AM
Sensor [0]: US50 EB Driving Dry - 49.1 - - - - - 4/26/2015 1:30:37 AM
Sensor [1]: US50 WB Driving Dry - 50.9 - - - - - 4/26/2015 1:30:37 AM
32-USR 35 @ SR 160 (200031) Status Air Temp Sfc Temp Sub Temp Dew Temp Wind Precip Traffic Updated
Sensor [A]: Atmospheric - 43.9 - - 39.7 4.3 / N - - 4/26/2015 2:00:55 AM
Sensor [0]: SR35 NB Driving Wet - 49.1 - - - - - 4/26/2015 2:00:55 AM
33-US33@mm9.2 (200032) Status Air Temp Sfc Temp Sub Temp Dew Temp Wind Precip Traffic Updated
Sensor [A]: Atmospheric - 43.3 - - 39.4 - - - 4/26/2015 2:02:18 AM
Sensor [0]: US33 EB Driving Dry - 43.7 - - - - - 4/26/2015 2:02:18 AM
Sensor [1]: US33 EB Driving Bridgedeck Wet - 49.1 - - - - - 4/26/2015 2:02:18 AM
34-US33 @ OH7 (200033) Status Air Temp Sfc Temp Sub Temp Dew Temp Wind Precip Traffic Updated
Sensor [A]: Atmospheric - 43.7 - - 41.5 7.5 / NE - - 4/26/2015 2:03:19 AM
Sensor [0]: US-33 EB Driving Departure Dry - 47.3 54.5 - - - - 4/26/2015 2:03:19 AM
Sensor [1]: US-33 WB Driving Approach Dry - 47.3 - - - - - 4/26/2015 2:03:19 AM
Sensor [2]: US-33 EB Driving Bridgedeck Dry - 47.3 - - - - - 4/26/2015 2:03:19 AM
35-SR7 @ SLM12.7 (200034) Status Air Temp Sfc Temp Sub Temp Dew Temp Wind Precip Traffic Updated
Sensor [A]: Atmospheric - 43.7 - - 42.3 3.1 / NW - - 4/26/2015 2:03:17 AM
36-SR60 @ Monestary Rd (200035) Status Air Temp Sfc Temp Sub Temp Dew Temp Wind Precip Traffic Updated
Sensor [A]: Atmospheric - 41.5 - - 39.7 1.9 / N - - 4/26/2015 2:03:15 AM
Sensor [0]: SR60 EB Lane Wet - 45.5 57.2 - - - - 4/26/2015 2:03:15 AM
Sensor [1]: SR60 WB Lane Trace Moisture - 45.5 - - - - - 4/26/2015 2:03:15 AM
37-SR32@SR160 (200036) Status Air Temp Sfc Temp Sub Temp Dew Temp Wind Precip Traffic Updated
Sensor [A]: Atmospheric - 44.1 - - 40.1 2.5 / N - - 4/26/2015 2:02:20 AM
Sensor [0]: SR32 EB Driving Dry - 49.1 - - - - - 4/26/2015 2:02:20 AM
Sensor [1]: SR32 WB Driving Bridgedeck Dry - 47.3 - - - - - 4/26/2015 2:02:20 AM
38-SR43@SR9 (200037) Status Air Temp Sfc Temp Sub Temp Dew Temp Wind Precip Traffic Updated
Sensor [A]: Atmospheric - 41.4 - - 26.6 5.6 / NE - - 4/26/2015 2:00:33 AM
Sensor [0]: SR43 NB Trace Moisture - 49.1 57.2 - - - - 4/26/2015 2:00:33 AM
Sensor [1]: SR9 SB Dry - 50.9 - - - - - 4/26/2015 2:00:33 AM
39-SR11@SR267 (200038) Status Air Temp Sfc Temp Sub Temp Dew Temp Wind Precip Traffic Updated
Sensor [A]: Atmospheric - 41.4 - - 27.3 1.9 / E - - 4/26/2015 2:00:35 AM
Sensor [0]: SR11 NB Driving Dry - 50.9 57.2 - - - - 4/26/2015 2:00:35 AM
Sensor [1]: SR11 SB Driving Trace Moisture - 49.1 - - - - - 4/26/2015 2:00:35 AM
40-Clinton County Garage (200039) Status Air Temp Sfc Temp Sub Temp Dew Temp Wind Precip Traffic Updated
Sensor [A]: Atmospheric - 42.6 - - 41.7 9.9 / W - - 4/26/2015 2:03:13 AM
41- SR62@SR206 (200042) Status Air Temp Sfc Temp Sub Temp Dew Temp Wind Precip Traffic Updated
Sensor [A]: Atmospheric - 42.6 - - 28.9 6.2 / N - - 4/26/2015 2:00:28 AM
Sensor [0]: SR62 EB Dry - 43.7 - - - - 0 / 42.3 4/26/2015 2:00:28 AM
Sensor [1]: SR62 WB Dry - 41.9 - - - - 0 / 16.8 4/26/2015 2:00:28 AM
42- SR7@ SLM14.65 (200041) Status Air Temp Sfc Temp Sub Temp Dew Temp Wind Precip Traffic Updated
Sensor [A]: Atmospheric - 47.8 - - 29.1 1.9 / N - - 4/26/2015 2:00:34 AM
Sensor [0]: SR7 Passing Dry - 50.9 59.0 - - - - 4/26/2015 2:00:34 AM
Sensor [1]: SR7 NB Driving Trace Moisture - 54.5 - - - - - 4/26/2015 2:00:34 AM
Sensor [2]: SR7 SB Driving Dry - 54.5 - - - - - 4/26/2015 2:00:34 AM
51-IR 70 West of CR 320 (0.8 MM) (200050) Status Air Temp Sfc Temp Sub Temp Dew Temp Wind Precip Traffic Updated
Sensor [A]: Atmospheric - 40.1 - - 26.8 7.5 / N - - 4/26/2015 2:00:35 AM
Sensor [0]: IR70 EB Driving Dry - 47.3 54.5 - - - 56 / 62.1 4/26/2015 2:00:35 AM
Sensor [1]: IR70 WB Driving Dry - 47.3 - - - - 60 / 60.3 4/26/2015 2:00:35 AM
52-18 MM MOT/PRE (200051) Status Air Temp Sfc Temp Sub Temp Dew Temp Wind Precip Traffic Updated
Sensor [A]: Atmospheric - 40.1 - - 28.4 / Unknown - - 4/26/2015 2:00:36 AM
Sensor [0]: IR70 WB Passing Dry - 43.7 - - - - 56 / 57.8 4/26/2015 2:00:36 AM
Sensor [1]: IR70 EB Driving Dry - 45.5 - - - - 0 / 62.1 4/26/2015 2:00:36 AM
Sensor [2]: IR70 WB Driving Trace Moisture - 47.3 56.3 - - - 26 / 62.8 4/26/2015 2:00:36 AM
53-CLA-70 @ I675 ***Under Construction*** (200052) Status Air Temp Sfc Temp Sub Temp Dew Temp Wind Precip Traffic Updated
Sensor [A]: Atmospheric - 41.5 - - 28.2 6.8 / N - - 4/26/2015 2:00:30 AM
54-IR70 MM 62 (200053) Status Air Temp Sfc Temp Sub Temp Dew Temp Wind Precip Traffic Updated
Sensor [A]: Atmospheric - 39.9 - - 30.0 8.1 / NE - - 4/26/2015 2:02:53 AM
Sensor [0]: I70 EB Driving Dry - 43.7 56.3 - - - 0 / 9.9 4/26/2015 2:02:53 AM
Sensor [1]: I70 WB Passing Dry - 47.3 - - - - 0 / 9.9 4/26/2015 2:02:53 AM
55-IR70 MM 142 (200054) Status Air Temp Sfc Temp Sub Temp Dew Temp Wind Precip Traffic Updated
Sensor [A]: Atmospheric - 41.5 - - 34.9 2.5 / N - - 4/26/2015 2:00:38 AM
Sensor [1]: IR70 WB Driving Trace Moisture - 47.3 - - - - 35 / 39.8 4/26/2015 2:00:38 AM
56-IR70 MM 169 (200055) Status Air Temp Sfc Temp Sub Temp Dew Temp Wind Precip Traffic Updated
Sensor [A]: Atmospheric - 41.7 - - 38.5 0.6 / E - - 4/26/2015 1:39:27 AM
Sensor [0]: IR70 EB Driving Wet - 47.3 56.3 - - - 4 / 18.0 4/26/2015 1:39:27 AM
Sensor [1]: IR70 WB Driving Dry - 47.3 - - - - 25 / 62.8 4/26/2015 1:39:27 AM
57-IR70 MM 198 (200056) Status Air Temp Sfc Temp Sub Temp Dew Temp Wind Precip Traffic Updated
Sensor [A]: Atmospheric - 41.4 - - 40.1 - - - 4/26/2015 2:00:45 AM
Sensor [0]: IR70 EB Driving Trace Moisture - 43.7 50.9 - - - 40 / 57.2 4/26/2015 2:00:45 AM
Sensor [1]: IR70 EB Passing Trace Moisture - 43.7 - - - - 1 / 26.7 4/26/2015 2:00:45 AM
Sensor [2]: IR70 WB Passing Wet - 43.7 - - - - 20 / 57.8 4/26/2015 2:00:45 AM
Sensor [3]: IR70 WB Driving (East) Dry - 47.3 - - - - 39 / 57.8 4/26/2015 2:00:45 AM
58-IR470 MM 6 (200057) Status Air Temp Sfc Temp Sub Temp Dew Temp Wind Precip Traffic Updated
Sensor [A]: Atmospheric - 43.5 - - 42.3 0.6 / W - - 4/26/2015 2:02:28 AM
Sensor [0]: IR470 EB Driving Dry - 49.1 56.3 - - - 30 / 44.1 4/26/2015 2:02:28 AM
59- US 127 @ SR 744 (200058) Status Air Temp Sfc Temp Sub Temp Dew Temp Wind Precip Traffic Updated
Sensor [A]: Atmospheric - 42.4 - - 36.1 5.0 / N - - 4/26/2015 2:01:21 AM
Sensor [0]: US127 NB Bridgedeck No Report - - - - - - 55 / 64.0 4/26/2015 2:01:21 AM
Sensor [1]: US127 SB Bridgedeck No Report - - - - - - 31 / 70.8 4/26/2015 2:01:21 AM
60-IR71 MM 62 (200059) Status Air Temp Sfc Temp Sub Temp Dew Temp Wind Precip Traffic Updated
Sensor [A]: Atmospheric - 41.9 - - 36.3 11.8 / NW - - 4/26/2015 2:01:34 AM
Sensor [0]: IR71 SB Passing Dry - 43.7 54.5 - - - 2 / 65.2 4/26/2015 2:01:34 AM
Sensor [1]: IR71 SB Center Dry - 43.7 - - - - 0 / 26.7 4/26/2015 2:01:34 AM
Sensor [2]: IR71 NB Driving Dry - 47.3 - - - - 0 / 9.9 4/26/2015 2:01:34 AM
Sensor [3]: IR71 NB Passing Bridgedeck Dry - 47.3 - - - - 0 / 9.9 4/26/2015 2:01:34 AM
61-IR71 MM 79 (200060) Status Air Temp Sfc Temp Sub Temp Dew Temp Wind Precip Traffic Updated
Sensor [A]: Atmospheric - 40.8 - - 33.1 9.3 / NE - - 4/26/2015 2:01:36 AM
Sensor [0]: IR71 NB Driving Bridgedeck Dry - 47.3 49.1 - - - 1 / 9.9 4/26/2015 2:01:36 AM
Sensor [1]: IR71 NB Driving Dry - 49.1 - - - - 0 / 9.9 4/26/2015 2:01:36 AM
62- Cemetary Rd. Over I-270 (200061) Status Air Temp Sfc Temp Sub Temp Dew Temp Wind Precip Traffic Updated
Sensor [A]: Atmospheric - 40.8 - - 31.3 6.8 / NE - - 4/26/2015 2:00:18 AM
Sensor [2]: Cemetary Rd WB Passing Dry - 49.1 - - - - 0 / 59.0 4/26/2015 2:00:18 AM
63-IR 71 @ Morrow/Delaware County Line (200062) Status Air Temp Sfc Temp Sub Temp Dew Temp Wind Precip Traffic Updated
Sensor [A]: Atmospheric - 60.3 - - 47.3 6.2 / E - - 4/9/2013 9:12:09 AM
64-I71 MM 158 (200063) Status Air Temp Sfc Temp Sub Temp Dew Temp Wind Precip Traffic Updated
Sensor [A]: Atmospheric - 40.3 - - 26.2 7.5 / N - - 4/26/2015 2:02:21 AM
Sensor [0]: IR71 NB Driving Dry - 45.5 54.5 - - - 0 / 9.9 4/26/2015 2:02:21 AM
Sensor [1]: IR71 SB Driving Dry - 45.5 - - - - 0 / 9.9 4/26/2015 2:02:21 AM
65-IR71 MM 174 (200064) Status Air Temp Sfc Temp Sub Temp Dew Temp Wind Precip Traffic Updated
Sensor [A]: Atmospheric - 39.7 - - 28.9 6.8 / NW - - 4/26/2015 2:02:25 AM
Sensor [0]: IR71 NB Driving Dry - 41.9 45.5 - - - 7 / 62.8 4/26/2015 2:02:25 AM
66-IR71 MM 195.55 (200065) Status Air Temp Sfc Temp Sub Temp Dew Temp Wind Precip Traffic Updated
Sensor [A]: Atmospheric - 39.6 - - 30.9 3.7 / N - - 4/26/2015 2:00:20 AM
Sensor [1]: IR71 South Bound Passing Lane Dry - 41.9 - - - - 0 / 54.1 4/26/2015 2:00:20 AM
Sensor [2]: IR71 South Bound Driving Lane Dry - 47.3 - - - - 0 / 21.7 4/26/2015 2:00:20 AM
67-IR71 MM 209 (200066) Status Air Temp Sfc Temp Sub Temp Dew Temp Wind Precip Traffic Updated
Sensor [A]: Atmospheric - 40.1 - - 30.7 5.0 / N - - 4/26/2015 2:02:28 AM
Sensor [0]: IR71 NB Driving Dry - 49.1 56.3 - - - 0 / 9.9 4/26/2015 2:02:28 AM
Sensor [1]: IR71 SB Driving Bridgedeck Dry - 47.3 - - - - 0 / 9.9 4/26/2015 2:02:28 AM
68-IR271 @ IR77 (200067) Status Air Temp Sfc Temp Sub Temp Dew Temp Wind Precip Traffic Updated
Sensor [A]: Atmospheric - 41.7 - - 22.3 6.2 / N - - 4/26/2015 2:02:31 AM
Sensor [0]: I271 SB Passing Bridgedeck Dry - 49.1 - - - - 0 / 9.9 4/26/2015 2:02:31 AM
Sensor [1]: I271 NB Driving Trace Moisture - 47.3 - - - - 0 / 9.9 4/26/2015 2:02:31 AM
69-IR275 MM 21 (200068) Status Air Temp Sfc Temp Sub Temp Dew Temp Wind Precip Traffic Updated
Sensor [A]: Atmospheric - 45.3 - - 42.1 0.6 / N - - 4/26/2015 1:51:27 AM
Sensor [1]: IR275 SB Driving Trace Moisture - 50.9 - - - - 1 / 9.9 4/26/2015 1:51:27 AM
70-IR275 HAM/CLER (200069) Status Air Temp Sfc Temp Sub Temp Dew Temp Wind Precip Traffic Updated
Sensor [A]: Atmospheric - 45.3 - - 39.9 - - - 4/26/2015 2:00:10 AM
Sensor [0]: I275 EB Driving Dry - 50.9 57.2 - - - 0 / 62.1 4/26/2015 2:00:10 AM
Sensor [1]: I275 WB Driving Dry - 50.9 - - - - 0 / 60.9 4/26/2015 2:00:10 AM
71-I675 MONT/GRE (200070) Status Air Temp Sfc Temp Sub Temp Dew Temp Wind Precip Traffic Updated
Sensor [A]: Atmospheric - 43.0 - - 31.6 9.3 / W - - 4/26/2015 2:00:51 AM
Sensor [0]: I675 NB Driving Dry - 49.1 56.3 - - - 46 / 60.9 4/26/2015 2:00:51 AM
Sensor [1]: I675 SB Driving Dry - 49.1 - - - - 97 / 62.8 4/26/2015 2:00:51 AM
72-18 MM BUT/HAM (200071) Status Air Temp Sfc Temp Sub Temp Dew Temp Wind Precip Traffic Updated
Sensor [A]: Atmospheric - 45.7 - - 38.1 6.2 / NW - - 4/26/2015 2:00:46 AM
Sensor [0]: IR75 NB Passing Dry - 50.9 59.0 - - - - 4/26/2015 2:00:46 AM
Sensor [1]: IR75 SB Driving Dry - 50.9 - - - - - 4/26/2015 2:00:46 AM
73-I75mm27.5 SB (200072) Status Air Temp Sfc Temp Sub Temp Dew Temp Wind Precip Traffic Updated
Sensor [A]: Atmospheric - 44.8 - - 37.8 6.8 / N - - 4/26/2015 2:00:42 AM
Sensor [0]: IR75 NB Driving Dry - 49.1 - - - - - 4/26/2015 2:00:42 AM
Sensor [1]: IR75 SB Driving Dry - 50.9 - - - - - 4/26/2015 2:00:42 AM
74-IR75 MM 40 (200073) Status Air Temp Sfc Temp Sub Temp Dew Temp Wind Precip Traffic Updated
Sensor [A]: Atmospheric - 43.3 - - 35.4 9.9 / NE - - 4/26/2015 2:00:52 AM
Sensor [0]: IR75 NB Driving Trace Moisture - 49.1 56.3 - - - 26 / 14.3 4/26/2015 2:00:52 AM
Sensor [1]: IR75 SB Driving Trace Moisture - 47.3 - - - - 9 / 19.3 4/26/2015 2:00:52 AM
75-SR 16 @ CR 34 W. Carlisle Rd (MM 4.3) (200074) Status Air Temp Sfc Temp Sub Temp Dew Temp Wind Precip Traffic Updated
Sensor [A]: Atmospheric - 40.8 - - 35.8 - - - 4/26/2015 2:00:41 AM
Sensor [0]: SR16 EB Driving Bridgedeck Dry - 45.5 47.3 - - - - 4/26/2015 2:00:41 AM
76-IR75 MM 84 (200075) Status Air Temp Sfc Temp Sub Temp Dew Temp Wind Precip Traffic Updated
Sensor [A]: Atmospheric - 40.1 - - 29.7 7.5 / N - - 4/26/2015 2:02:24 AM
77-IR75 MM 105 (200076) Status Air Temp Sfc Temp Sub Temp Dew Temp Wind Precip Traffic Updated
Sensor [A]: Atmospheric - 39.4 - - 30.9 - - - 4/26/2015 2:01:20 AM
Sensor [0]: IR75 NB Driving Dry - 43.7 47.3 - - - 0 / 9.9 4/26/2015 2:01:20 AM
Sensor [1]: IR75 SB Driving Dry - 52.7 - - - - 0 / 9.9 4/26/2015 2:01:20 AM
78-IR75 MM 119 (200077) Status Air Temp Sfc Temp Sub Temp Dew Temp Wind Precip Traffic Updated
Sensor [A]: Atmospheric - 40.6 - - 31.1 6.2 / N - - 4/26/2015 2:01:23 AM
Sensor [1]: IR75 SB Driving Wet - 186.8 - - - - 0 / 9.9 4/26/2015 2:01:23 AM
79-IR 75 @ Allen/Hancock County Line (200078) Status Air Temp Sfc Temp Sub Temp Dew Temp Wind Precip Traffic Updated
Sensor [A]: Atmospheric - 40.5 - - 32.0 2.5 / NW - - 4/26/2015 2:03:00 AM
Sensor [0]: IR75 NB Driving Dry - 45.5 54.5 - - - 0 / 9.9 4/26/2015 2:03:00 AM
Sensor [1]: IR75 SB Driving Wet - 45.5 - - - - 0 / 9.9 4/26/2015 2:03:00 AM
80-IR 77@ SR 7 Interchange (200079) Status Air Temp Sfc Temp Sub Temp Dew Temp Wind Precip Traffic Updated
Sensor [A]: Atmospheric - 42.6 - - 41.5 1.9 / NE - - 4/26/2015 2:02:36 AM
Sensor [0]: I77 SB Driving Lane Wet - 47.7 - - - - - 4/26/2015 2:02:36 AM
81-IR77 MM 16 (200080) Status Air Temp Sfc Temp Sub Temp Dew Temp Wind Precip Traffic Updated
Sensor [A]: Atmospheric - 42.4 - - 41.7 1.2 / N - - 4/26/2015 2:05:02 AM
Sensor [0]: IR77 SB Driving Dry - 47.1 - - - - - 4/26/2015 2:05:02 AM
82-IR77 MM 36 (200081) Status Air Temp Sfc Temp Sub Temp Dew Temp Wind Precip Traffic Updated
Sensor [A]: Atmospheric - 41.9 - - 41.4 1.2 / NW - - 4/26/2015 2:02:16 AM
Sensor [0]: IR77 SB Driving Dry - 45.7 54.1 - - - 27 / 64.0 4/26/2015 2:02:16 AM
Sensor [1]: IR77 NB Driving Trace Moisture - - - - - - 0 / 52.8 4/26/2015 2:02:16 AM
83-IR77 MM 59 (200082) Status Air Temp Sfc Temp Sub Temp Dew Temp Wind Precip Traffic Updated
Sensor [A]: Atmospheric - 42.4 - - 34.9 1.2 / N - - 4/26/2015 2:03:20 AM
Sensor [0]: IR77 NB Driving Trace Moisture - 49.1 57.2 - - - 0 / 5.0 4/26/2015 2:03:20 AM
Sensor [1]: IR77 SB Driving Dry - 49.1 - - - - 0 / 5.0 4/26/2015 2:03:20 AM
84-IR 77 @ Stark/Tuscarawas County Line (200083) Status Air Temp Sfc Temp Sub Temp Dew Temp Wind Precip Traffic Updated
Sensor [A]: Atmospheric - 43.0 - - 26.8 5.6 / N - - 4/26/2015 2:03:19 AM
Sensor [0]: IR77 NB Passing Lane Trace Moisture - 49.1 56.1 - - - 0 / 52.8 4/26/2015 2:03:19 AM
Sensor [1]: IR77 SB Passing Lane Dry - 47.8 - - - - 0 / 6.8 4/26/2015 2:03:19 AM
85-SR2 @ Huron River (200084) Status Air Temp Sfc Temp Sub Temp Dew Temp Wind Precip Traffic Updated
Sensor [A]: Atmospheric - 41.2 - - 33.4 9.9 / W - - 4/26/2015 2:03:29 AM
Sensor [0]: SR2 WB Driving Appraoch Dry - 47.3 54.5 - - - 8959 / 154.1 4/26/2015 2:03:29 AM
Sensor [1]: SR2 EB Driving Departure Dry - 47.3 - - - - 1 / 5.0 4/26/2015 2:03:29 AM
86-IR90 @ SR57 (200085) Status Air Temp Sfc Temp Sub Temp Dew Temp Wind Precip Traffic Updated
Sensor [A]: Atmospheric - 40.8 - - 30.6 5.0 / N - - 4/26/2015 2:02:05 AM
Sensor [0]: IR90 EB Driving No Report - - - - - - 34 / 6.2 4/26/2015 2:02:05 AM
Sensor [1]: IR90 WB Driving Dry - 46.2 - - - - 0 / 5.0 4/26/2015 2:02:05 AM
87-IR90 ATB/LAKE (200086) Status Air Temp Sfc Temp Sub Temp Dew Temp Wind Precip Traffic Updated
Sensor [A]: Atmospheric - 35.2 - - 28.8 - - - 4/26/2015 2:03:30 AM
88-IR90 @ SR11 (200087) Status Air Temp Sfc Temp Sub Temp Dew Temp Wind Precip Traffic Updated
Sensor [A]: Atmospheric - 36.5 - - 31.3 5.0 / N - - 4/26/2015 2:01:58 AM
Sensor [0]: IR90 EB Passing No Report - - - - - - 0 / 158.4 4/26/2015 2:01:58 AM
Sensor [1]: IR90 WB Passing No Report - - - - - - 31 / 65.2 4/26/2015 2:01:58 AM
89-IR90 @ PA Line (200088) Status Air Temp Sfc Temp Sub Temp Dew Temp Wind Precip Traffic Updated
Sensor [A]: Atmospheric - 33.1 - - 28.2 - - - 4/26/2015 2:06:25 AM
Sensor [0]: IR90 EB Driving Bridgedeck Wet - 40.1 - - - - - 4/26/2015 2:06:25 AM
Sensor [1]: IR90 EB Passing Wet - 40.3 - - - - - 4/26/2015 2:06:25 AM
Sensor [2]: IR90 WB Passing Bridgedeck Dry - 41.2 - - - - - 4/26/2015 2:06:25 AM
Sensor [3]: IR90 WB Driving No Report - - - - - - - 4/26/2015 2:06:25 AM
90-IR80 @ PA Line (200089) Status Air Temp Sfc Temp Sub Temp Dew Temp Wind Precip Traffic Updated
Sensor [A]: Atmospheric - 42.1 - - 28.0 1.2 / NE - - 4/26/2015 2:03:21 AM
Sensor [0]: IR80 EB Driving Dry - 46.8 54.0 - - - 21 / 49.1 4/26/2015 2:03:21 AM
Sensor [1]: IR80 WB Driving Dry - 47.3 - - - - 0 / 47.8 4/26/2015 2:03:21 AM
91-IR76 MAH/POR (200090) Status Air Temp Sfc Temp Sub Temp Dew Temp Wind Precip Traffic Updated
Sensor [A]: Atmospheric - 40.6 - - 25.2 3.7 / NE - - 4/26/2015 2:03:32 AM
Sensor [0]: IR76 EB Passing Dry - 56.3 - - - - 6 / 9.9 4/26/2015 2:03:32 AM
Sensor [2]: IR76 EB Driving Wet - 45.5 - - - - 17 / 64.0 4/26/2015 2:03:32 AM
92-IR76 POR/SUM (200091) Status Air Temp Sfc Temp Sub Temp Dew Temp Wind Precip Traffic Updated
Sensor [A]: Atmospheric - 42.4 - - 23.7 6.2 / NE - - 4/26/2015 2:00:27 AM
94-SR11 ATB/TRUM (200093) Status Air Temp Sfc Temp Sub Temp Dew Temp Wind Precip Traffic Updated
Sensor [A]: Atmospheric - 38.1 - - 26.1 1.9 / S - - 4/26/2015 2:04:09 AM
Sensor [0]: SR11 NB Driving No Report - - - - - - 22 / 64.0 4/26/2015 2:04:09 AM
Sensor [1]: SR11 SB Driving No Report - - - - - - 2 / 9.9 4/26/2015 2:04:09 AM
95-SR11 MAH/COL (200094) Status Air Temp Sfc Temp Sub Temp Dew Temp Wind Precip Traffic Updated
Sensor [A]: Atmospheric - 40.8 - - 27.7 4.3 / N - - 4/26/2015 2:01:19 AM
Sensor [0]: SR11 NB Driving Trace Moisture - 46.2 55.9 - - - 0 / 64.0 4/26/2015 2:01:19 AM
Sensor [1]: SR11 SB Driving Trace Moisture - 46.8 - - - - 0 / 9.9 4/26/2015 2:01:19 AM
97-SR315 @ I270 (200096) Status Air Temp Sfc Temp Sub Temp Dew Temp Wind Precip Traffic Updated
Sensor [A]: Atmospheric - 40.8 - - 33.6 3.1 / NE - - 4/26/2015 2:00:08 AM
Sensor [1]: I270 WB Passing Dry - 45.5 - - - - 0 / 42.3 4/26/2015 2:00:08 AM
Sensor [2]: IR Ice Detection Sensor Dry - - - - - - 6 / 60.3 4/26/2015 2:00:08 AM
98-I270 SB Ramp to SR161 EB (200097) Status Air Temp Sfc Temp Sub Temp Dew Temp Wind Precip Traffic Updated
Sensor [A]: Atmospheric - 41.2 - - 31.5 5.0 / SE - - 4/26/2015 2:00:31 AM
Sensor [1]: SR161 WB Driving Dry - 43.7 - - - - 0 / 50.3 4/26/2015 2:00:31 AM
99-US30 @ Dalton (200098) Status Air Temp Sfc Temp Sub Temp Dew Temp Wind Precip Traffic Updated
Sensor [A]: Atmospheric - 41.2 - - 26.8 0.6 / N - - 4/26/2015 2:01:29 AM
Sensor [0]: US30 EB Driving Dry - 48.0 48.6 - - - 0 / 50.3 4/26/2015 2:01:29 AM
Sensor [1]: US30 WB Driving Bridgedeck Dry - 45.7 - - - - 11 / 57.2 4/26/2015 2:01:29 AM
100-SR225 @ Berlin Reservoir (200099) Status Air Temp Sfc Temp Sub Temp Dew Temp Wind Precip Traffic Updated
Sensor [A]: Atmospheric - 41.2 - - 28.4 6.2 / NE - - 4/26/2015 1:03:16 AM
Sensor [0]: SR225 NB Lane Dry - 47.5 55.4 - - - 0 / 65.2 4/26/2015 1:03:16 AM
Sensor [1]: SR225 SB Bridgedeck Dry - 45.3 - - - - 4 / 9.9 4/26/2015 1:03:16 AM
101-SR45 @ Rock Creek (200100) Status Air Temp Sfc Temp Sub Temp Dew Temp Wind Precip Traffic Updated
Sensor [A]: Atmospheric - 36.1 - - 28.4 - - - 4/26/2015 2:03:33 AM
Sensor [0]: SR45 NB Bridgedeck Dry - 45.5 56.3 - - - 12 / 34.8 4/26/2015 2:03:33 AM
Sensor [1]: SR45 SB Dry - 49.1 - - - - 0 / 39.1 4/26/2015 2:03:33 AM
102-SR 167 / SR 7 @ East Branch Ashtabula River (MM 11.0) (200101) Status Air Temp Sfc Temp Sub Temp Dew Temp Wind Precip Traffic Updated
Sensor [A]: Atmospheric - 30.9 - - 27.0 0.6 / NW - - 4/26/2015 2:02:44 AM
Sensor [0]: SR7 NB Dry - 40.3 - - - - 6 / 42.3 4/26/2015 2:02:44 AM
Sensor [1]: SR7 SB Bridgedeck Dry - 41.0 - - - - 0 / 5.0 4/26/2015 2:02:44 AM
103- I-70 @ SR-79 (200102) Status Air Temp Sfc Temp Sub Temp Dew Temp Wind Precip Traffic Updated
Sensor [A]: Atmospheric - 42.1 - - 32.2 5.6 / N - - 4/26/2015 2:00:48 AM
Sensor [1]: SR79 SB Bridgedeck Dry - 43.7 - - - - 36 / 50.3 4/26/2015 2:00:48 AM
Sensor [2]: IR70 EB Driving Dry - 47.3 - - - - 32 / 60.3 4/26/2015 2:00:48 AM
104-SR 3 KNOX/Ashland (200103) Status Air Temp Sfc Temp Sub Temp Dew Temp Wind Precip Traffic Updated
Sensor [A]: Atmospheric - 40.6 - - 29.1 6.8 / NW - - 4/26/2015 2:02:42 AM
Sensor [0]: SR3 SB Wet - 44.1 53.8 - - - 2 / 52.2 4/26/2015 2:02:42 AM
105-IR70/IR75 (200104) Status Air Temp Sfc Temp Sub Temp Dew Temp Wind Precip Traffic Updated
Sensor [A]: Atmospheric - 40.8 - - 27.1 9.9 / N - - 4/26/2015 2:00:47 AM
Sensor [0]: IR75 NB Driving Dry - 49.1 - - - - 12 / 60.3 4/26/2015 2:00:47 AM
Sensor [1]: IR70 WB Driving Bridgedeck Dry - 45.5 - - - - 46 / 65.2 4/26/2015 2:00:47 AM
106-SR39 @ Sugarcreek (200105) Status Air Temp Sfc Temp Sub Temp Dew Temp Wind Precip Traffic Updated
Sensor [A]: Atmospheric - 42.4 - - 27.7 5.6 / NE - - 4/26/2015 2:01:44 AM
Sensor [0]: SR39 EB Lane Dry - 46.9 - - - - 6 / 51.0 4/26/2015 2:01:44 AM
Sensor [1]: SR39 WB Lane Dry - 47.7 54.1 - - - 131 / 47.8 4/26/2015 2:01:44 AM
107-US250 @ Ulrichsville (200106) Status Air Temp Sfc Temp Sub Temp Dew Temp Wind Precip Traffic Updated
Sensor [A]: Atmospheric - 44.1 - - 28.0 - - - 4/26/2015 2:03:22 AM
Sensor [0]: US250 EB Driving Trace Moisture - 49.1 57.2 - - - 0 / 5.0 4/26/2015 2:03:22 AM
Sensor [1]: US250 WB Driving Dry - 49.1 - - - - 0 / 5.0 4/26/2015 2:03:22 AM
108-SR 183 @ Minerva / Linden Road NW (MM 7.9) (200107) Status Air Temp Sfc Temp Sub Temp Dew Temp Wind Precip Traffic Updated
Sensor [A]: Atmospheric - 41.5 - - 27.5 4.3 / E - - 4/26/2015 2:03:08 AM
Sensor [0]: SR183 NB Bridgedeck Dry - 46.4 55.8 - - - 9 / 70.8 4/26/2015 2:03:08 AM
Sensor [1]: SR183 SB Dry - 47.7 - - - - 4 / 9.9 4/26/2015 2:03:08 AM
109-SR 22 @ East of SR 151 at the RR overpass (MM 24.6) (200108) Status Air Temp Sfc Temp Sub Temp Dew Temp Wind Precip Traffic Updated
Sensor [A]: Atmospheric - 44.1 - - 28.9 0.6 / SE - - 4/26/2015 2:03:26 AM
Sensor [0]: SR22E Driving Lane Dry - 45.5 50.9 - - - 19 / 67.1 4/26/2015 2:03:26 AM
Sensor [1]: SR22W Passing Lane Dry - 47.3 - - - - 2 / 73.9 4/26/2015 2:03:26 AM
110-SR7 @ SR213 (200109) Status Air Temp Sfc Temp Sub Temp Dew Temp Wind Precip Traffic Updated
Sensor [A]: Atmospheric - 45.3 - - 30.4 5.0 / N - - 4/26/2015 2:03:24 AM
Sensor [0]: SR7 NB Driving Trace Moisture - 48.7 56.3 - - - 6 / 42.3 4/26/2015 2:03:24 AM
111-I70 MM 114 (200110) Status Air Temp Sfc Temp Sub Temp Dew Temp Wind Precip Traffic Updated
Sensor [A]: Atmospheric - 42.3 - - 30.4 - - - 4/26/2015 2:00:32 AM
Sensor [0]: IR70 WB Passing Dry - 45.5 54.5 - - - 86 / 47.8 4/26/2015 2:00:32 AM
Sensor [1]: IR70 WB Passing Bridgedeck Dry - 45.5 - - - - 71 / 75.8 4/26/2015 2:00:32 AM
112-USR 27 @ 21 MM (200111) Status Air Temp Sfc Temp Sub Temp Dew Temp Wind Precip Traffic Updated
Sensor [A]: Atmospheric - 42.3 - - 34.2 13.0 / E - - 4/26/2015 2:01:57 AM
Sensor [0]: SR27 NB Lane Dry - 45.5 49.6 - - - 1 / 47.2 4/26/2015 2:01:57 AM
Sensor [1]: SR27 SB Lane Dry - 47.3 - - - - 0 / 9.9 4/26/2015 2:01:57 AM
113-I-275 @ USR 52 (200112) Status Air Temp Sfc Temp Sub Temp Dew Temp Wind Precip Traffic Updated
Sensor [A]: Atmospheric - 45.9 - - 41.2 1.9 / E - - 4/26/2015 2:00:12 AM
Sensor [0]: I275 SB Driving Bridgedeck Trace Moisture - 47.3 57.2 - - - 28 / 60.3 4/26/2015 2:00:12 AM
Sensor [1]: I275 NB Driving Trace Moisture - 49.1 - - - - 35 / 62.8 4/26/2015 2:00:12 AM
114-IR71 @ US36 (38000) Status Air Temp Sfc Temp Sub Temp Dew Temp Wind Precip Traffic Updated
Sensor [A]: Atmospheric - 40.3 - - 29.1 5.6 / N - - 4/26/2015 2:00:45 AM
Sensor [0]: I71 SB Driving Dry - 41.9 - - - - - 4/26/2015 2:00:45 AM
115-IR71 @ Schrock Road (38001) Status Air Temp Sfc Temp Sub Temp Dew Temp Wind Precip Traffic Updated
Sensor [A]: Atmospheric - 40.6 - - 33.1 5.0 / NW - - 4/26/2015 2:00:46 AM
Sensor [0]: Schrock Rd Approach Dry - 45.0 - - - - - 4/26/2015 2:00:46 AM
Sensor [1]: Schrock Rd Bridgedeck Dry - 43.0 - - - - - 4/26/2015 2:00:46 AM
116-IR70W @ I270 (38004) Status Air Temp Sfc Temp Sub Temp Dew Temp Wind Precip Traffic Updated
Sensor [A]: Atmospheric - - - - - 6.8 / N - - 4/26/2015 2:00:47 AM
Sensor [0]: I-70 EB Drive Error - - - - - - - 4/26/2015 2:00:47 AM
117-IR70 @ SR29 (38005) Status Air Temp Sfc Temp Sub Temp Dew Temp Wind Precip Traffic Updated
Sensor [A]: Atmospheric - 39.7 - - 27.1 4.3 / N - - 4/26/2015 2:00:48 AM
Sensor [0]: SR29 NB Bridgedeck Dry - 41.9 - - - - - 4/26/2015 2:00:48 AM
Sensor [2]: I70 WB Driving Dry - 44.6 - - - - - 4/26/2015 2:00:48 AM
118-IR70/IR71/SR315 (38006) Status Air Temp Sfc Temp Sub Temp Dew Temp Wind Precip Traffic Updated
Sensor [A]: Atmospheric - 42.8 - - 30.2 4.3 / NE - - 4/26/2015 1:59:58 AM
Sensor [0]: I70 WB to I71 SB Ramp Dry - 47.7 - - - - - 4/26/2015 1:59:58 AM
Sensor [2]: SR315 NB Driving Dry - 50.9 - - - - - 4/26/2015 1:59:58 AM
Sensor [3]: I70 WB Driving Trace Moisture - 50.9 - - - - - 4/26/2015 1:59:58 AM
119-IR71S @ I270 (38007) Status Air Temp Sfc Temp Sub Temp Dew Temp Wind Precip Traffic Updated
Sensor [A]: Atmospheric - 33.1 - - 23.2 7.5 / N - - 1/20/2014 7:31:46 AM
Sensor [2]: I270 EB Passing Error - - - - - - - 1/20/2014 7:31:46 AM
120-US33 @ Hamilton Road (38010) Status Air Temp Sfc Temp Sub Temp Dew Temp Wind Precip Traffic Updated
Sensor [A]: Atmospheric - 43.2 - - 32.9 6.2 / SW - - 4/26/2015 2:01:12 AM
Sensor [0]: US33 EB Passing Dry - 49.1 - - - - - 4/26/2015 2:01:12 AM
121-I-670 Over Airport Connector (38014) Status Air Temp Sfc Temp Sub Temp Dew Temp Wind Precip Traffic Updated
Sensor [A]: Atmospheric - 42.4 - - 30.2 7.5 / N - - 4/26/2015 2:01:12 AM
Sensor [0]: Airport Connector Bridgedeck Dry - 42.4 - - - - - 4/26/2015 2:01:12 AM
Sensor [1]: I670 EB Passing Dry - 43.2 - - - - - 4/26/2015 2:01:12 AM
Sensor [2]: I670 WB Passing Dry - 44.2 - - - - - 4/26/2015 2:01:12 AM
122-Medina Line Rd. Over I-271 (612000) Status Air Temp Sfc Temp Sub Temp Dew Temp Wind Precip Traffic Updated
Sensor [A]: Atmospheric - 42.3 - - 18.1 4.3 / NE - - 4/26/2015 2:10:24 AM
Sensor [0]: SB Bridge Dry - 46.6 - - - - - 4/26/2015 2:00:08 AM
Sensor [1]: SB Road Wet - 50.9 52.7 - - - - 4/26/2015 2:00:08 AM
123-Steels Corner Rd. /Mud Creek (612003) Status Air Temp Sfc Temp Sub Temp Dew Temp Wind Precip Traffic Updated
Sensor [A]: Atmospheric - 42.4 - - 25.9 0.6 / NE - - 4/26/2015 2:00:09 AM
Sensor [0]: WB Bridge Dry - 48.7 - - - - - 4/26/2015 2:00:09 AM
Sensor [1]: WB Road Trace Moisture - 52.7 54.5 - - - - 4/26/2015 2:00:09 AM
124-Old Mill Rd. Over I-480 (612004) Status Air Temp Sfc Temp Sub Temp Dew Temp Wind Precip Traffic Updated
Sensor [A]: Atmospheric - 42.4 - - 25.7 3.1 / N - - 4/26/2015 2:00:10 AM
Sensor [1]: I480 WB Driving Dry - 50.9 - - - - - 4/26/2015 2:00:10 AM
125-Ridgewood Rd. Over Rt 21 (612006) Status Air Temp Sfc Temp Sub Temp Dew Temp Wind Precip Traffic Updated
Sensor [A]: Atmospheric - 42.6 - - 22.1 1.2 / NE - - 4/26/2015 2:00:12 AM
Sensor [0]: EB Bridge Deck Dry - 49.1 - - - - - 4/26/2015 2:00:12 AM
126-Killian Rd. Over I-77 (612011) Status Air Temp Sfc Temp Sub Temp Dew Temp Wind Precip Traffic Updated
Sensor [A]: Atmospheric - 43.0 - - 20.1 5.6 / NE - - 4/26/2015 2:00:15 AM
Sensor [0]: EB Bridge Dry - 45.5 56.8 - - - - 4/26/2015 2:00:15 AM
127-US 6 Williams County (582000) Status Air Temp Sfc Temp Sub Temp Dew Temp Wind Precip Traffic Updated
Sensor [A]: Atmospheric - 34.2 - - - - - - 4/26/2015 2:10:24 AM
Sensor [0]: US-6 EB Lane Trace Moisture - 34.7 - - - - 2 / 37.3 4/26/2015 2:00:24 AM
Sensor [2]: US6 EB Error - 39.4 51.4 - - - - 4/26/2015 2:00:24 AM
128-US 20 @ SR 49 (582001) Status Air Temp Sfc Temp Sub Temp Dew Temp Wind Precip Traffic Updated
Sensor [A]: Atmospheric - 36.0 - - 29.7 4.3 / N - - 4/26/2015 2:00:26 AM
Sensor [0]: US-20 EB Dry - 34.7 - - - - - 4/26/2015 2:00:26 AM
129-US 20 @ ALT US 20 (582002) Status Air Temp Sfc Temp Sub Temp Dew Temp Wind Precip Traffic Updated
Sensor [A]: Atmospheric - 37.9 - - 34.9 2.5 / N - - 4/26/2015 2:00:27 AM
Sensor [2]: SR-20A WB Approach Dry - 39.7 52.9 - - - - 4/26/2015 2:00:27 AM
Sensor [3]: SR-20A WB Deck Trace Moisture - 39.7 - - - - - 4/26/2015 2:00:27 AM
130-US 20A @ SLM 2.5 Fulton (582003) Status Air Temp Sfc Temp Sub Temp Dew Temp Wind Precip Traffic Updated
Sensor [A]: Atmospheric - 36.9 - - -14.6 - - - 4/26/2015 2:00:29 AM
Sensor [0]: US-20 EB Deck Dry - 40.6 - - - - - 4/26/2015 2:00:29 AM
Sensor [1]: US-20 EB Approach Dry - 43.7 - - - - - 4/26/2015 2:00:29 AM
131-US 20 @ CR19 and Bean Creek (MM 9.0) (582004) Status Air Temp Sfc Temp Sub Temp Dew Temp Wind Precip Traffic Updated
Sensor [A]: Atmospheric - 39.9 - - 30.7 4.3 / NE - - 4/26/2015 2:00:30 AM
Sensor [0]: US-20 WB Deck Dry - 40.5 - - - - - 4/26/2015 2:00:30 AM
Sensor [1]: US-20 EB Approach Error - - - - - - - 4/26/2015 2:00:30 AM
132-SR 64 @ County Road N (MM 6.4) (582005) Status Air Temp Sfc Temp Sub Temp Dew Temp Wind Precip Traffic Updated
Sensor [A]: Atmospheric - 39.0 - - 28.8 8.1 / N - - 4/26/2015 2:00:31 AM
133-US 6 @ SLM .5 (582006) Status Air Temp Sfc Temp Sub Temp Dew Temp Wind Precip Traffic Updated
Sensor [A]: Atmospheric - 39.7 - - 30.2 4.3 / N - - 4/26/2015 2:00:33 AM
Sensor [0]: US-6 WB Dry - 40.8 45.5 - - - - 4/26/2015 2:00:33 AM
134-SR 108 @ SLM .5 (582007) Status Air Temp Sfc Temp Sub Temp Dew Temp Wind Precip Traffic Updated
Sensor [A]: Atmospheric - 39.6 - - 36.3 5.0 / NE - - 4/26/2015 2:10:24 AM
Sensor [0]: SR-108 NB Wet - 40.1 53.2 - - - - 4/26/2015 2:00:08 AM
135-US Rt 6 @ Maumee River (582008) Status Air Temp Sfc Temp Sub Temp Dew Temp Wind Precip Traffic Updated
Sensor [A]: Atmospheric - 43.3 - - 36.3 6.8 / NE - - 4/26/2015 2:00:10 AM
Sensor [0]: US-6 EB Deck Error - 41.4 - - - - - 4/26/2015 2:00:10 AM
Sensor [1]: US-6 WB Deck Dry - 41.9 - - - - - 4/26/2015 2:00:10 AM
136-Rt 65 South Henry County (582009) Status Air Temp Sfc Temp Sub Temp Dew Temp Wind Precip Traffic Updated
Sensor [A]: Atmospheric - 40.8 - - 32.4 8.7 / NE - - 4/26/2015 2:00:12 AM
Sensor [0]: SR-65 NB Dry - 40.1 - - - - - 4/26/2015 2:00:12 AM
137-SR 64 @ County Road N (MM 6.4) (582010) Status Air Temp Sfc Temp Sub Temp Dew Temp Wind Precip Traffic Updated
Sensor [A]: Atmospheric - 42.8 - - 25.9 3.1 / S - - 4/26/2015 2:00:14 AM
Sensor [0]: SR-64 EB Approach Dry - 43.3 - - - - - 4/26/2015 2:00:14 AM
Sensor [1]: SR-64 EB @ RPU Dry - 45.5 - - - - - 4/26/2015 2:00:14 AM
138-SR 295 @ Maumee River (582011) Status Air Temp Sfc Temp Sub Temp Dew Temp Wind Precip Traffic Updated
Sensor [A]: Atmospheric - 42.4 - - 27.1 4.3 / N - - 4/26/2015 2:00:16 AM
Sensor [0]: SR-578 SB Maumee River Dry - 43.9 54.7 - - - - 4/26/2015 2:00:16 AM
Sensor [1]: SR-578 SB Dry - 46.4 - - - - - 4/26/2015 2:00:16 AM
139-I-80 & I-475 Lucas ***Under Construction*** (582012) Status Air Temp Sfc Temp Sub Temp Dew Temp Wind Precip Traffic Updated
Sensor [A]: Atmospheric - 72.1 - - 71.6 1.9 / SW - - 10/3/2013 12:40:42 PM
Sensor [0]: I-475 NB Deck Dry - 77.0 - - - - - 10/3/2013 12:40:42 PM
Sensor [1]: I-475 SB Approach Error - - - - - - - 10/3/2013 12:40:42 PM
140-IR 475 @ US 23 Split ***Under Construction*** (582013) Status Air Temp Sfc Temp Sub Temp Dew Temp Wind Precip Traffic Updated
Sensor [A]: Atmospheric - 32.5 - - 18.7 1.9 / Unknown - - 4/26/2015 2:00:37 AM
141-IR 75 @ SLM 4.9 475 Split (582014) Status Air Temp Sfc Temp Sub Temp Dew Temp Wind Precip Traffic Updated
Sensor [A]: Atmospheric - 41.5 - - 32.4 6.8 / NE - - 4/26/2015 2:00:12 AM
142 - I-280 @ Veterans Glass City Skyway (VGCS) (582016) Status Air Temp Sfc Temp Sub Temp Dew Temp Wind Precip Traffic Updated
Sensor [A]: Atmospheric - 41.4 - - 26.6 6.8 / N - - 4/26/2015 2:00:13 AM
Sensor [1]: NB I-280 Center Lane Dry - 40.3 - - - - 5 / 60.3 4/26/2015 2:00:13 AM
Sensor [4]: SB I-280 Center Lane Dry - 40.3 - - - - 11 / 65.2 4/26/2015 2:00:13 AM
143-SR 2 @ MP 31.8 Lucas (582017) Status Air Temp Sfc Temp Sub Temp Dew Temp Wind Precip Traffic Updated
Sensor [A]: Atmospheric - 42.3 - - 30.9 8.1 / N - - 4/26/2015 2:00:16 AM
Sensor [0]: SR-2 EB Deck Dry - 41.9 - - - - - 4/26/2015 2:00:16 AM
144-IR 75 & Eagleville Rd. (582018) Status Air Temp Sfc Temp Sub Temp Dew Temp Wind Precip Traffic Updated
Sensor [A]: Atmospheric - 76.6 - - 63.0 4.3 / NE - - 8/18/2014 12:00:17 PM
Sensor [0]: I-75 NB Deck Error - - - - - - - 8/18/2014 12:00:17 PM
Sensor [1]: I-75 SB Deck Error - - - - - - - 8/18/2014 12:00:17 PM
145-IR 75 @ SLM 18.36 Wood (582019) Status Air Temp Sfc Temp Sub Temp Dew Temp Wind Precip Traffic Updated
Sensor [A]: Atmospheric - 80.8 - - 54.1 2.5 / E - - 8/7/2014 1:00:20 PM
Sensor [0]: I-75 NB Approach Error - 112.6 - - - - - 8/7/2014 1:00:20 PM
Sensor [1]: I-75 SB Deck Dry - 108.3 - - - - - 8/7/2014 1:00:20 PM
146-I-75 @ I-475 Wood ***Under Construction*** (582020) Status Air Temp Sfc Temp Sub Temp Dew Temp Wind Precip Traffic Updated
Sensor [A]: Atmospheric - 42.4 - - 33.3 6.8 / N - - 4/26/2015 2:00:14 AM
147-I-75 @ I-80 Wood County (582021) Status Air Temp Sfc Temp Sub Temp Dew Temp Wind Precip Traffic Updated
Sensor [A]: Atmospheric - 42.8 - - 34.0 10.6 / NE - - 4/26/2015 2:00:16 AM
Sensor [0]: I-75 NB Deck Trace Moisture - 43.3 - - - - - 4/26/2015 2:00:16 AM
Sensor [1]: I-75 SB Deck Error - - - - - - - 4/26/2015 2:00:16 AM
148-US-6 @ Rt. 23 (582022) Status Air Temp Sfc Temp Sub Temp Dew Temp Wind Precip Traffic Updated
Sensor [A]: Atmospheric - 42.6 - - 33.4 6.8 / NE - - 4/26/2015 2:00:17 AM
Sensor [0]: US-6 EB Wet - 49.1 - - - - 0 / 9.9 4/26/2015 2:00:17 AM
Sensor [1]: US-23 NB Wet - 49.1 - - - - 0 / 9.9 4/26/2015 2:00:17 AM
149-US-20 @ Lemoyne Rd. (582023) Status Air Temp Sfc Temp Sub Temp Dew Temp Wind Precip Traffic Updated
Sensor [A]: Atmospheric - 49.6 - - 41.5 5.6 / NE - - 4/26/2015 2:00:20 AM
Sensor [0]: US-20 EB Departure Dry - 41.9 - - - - 1 / 16.8 4/26/2015 2:00:20 AM
150-IR 280 @ SR 420 and CR 308 Libbey Rd (582024) Status Air Temp Sfc Temp Sub Temp Dew Temp Wind Precip Traffic Updated
Sensor [A]: Atmospheric - 42.3 - - 29.8 11.2 / N - - 4/26/2015 2:00:22 AM
151-SR 2 @ Portage River Bridge (582025) Status Air Temp Sfc Temp Sub Temp Dew Temp Wind Precip Traffic Updated
Sensor [A]: Atmospheric - 42.4 - - 34.2 16.8 / N - - 4/26/2015 2:00:23 AM
Sensor [0]: SR-2 EB Departure Dry - 45.9 53.8 - - - - 4/26/2015 2:00:23 AM
Sensor [1]: SR-2 WB Deck Dry - 41.9 - - - - - 4/26/2015 2:00:23 AM
152-SR-2@28.5 Bay Br. (582026) Status Air Temp Sfc Temp Sub Temp Dew Temp Wind Precip Traffic Updated
Sensor [A]: Atmospheric - 41.9 - - 41.7 11.2 / W - - 4/26/2015 2:00:24 AM
Sensor [3]: SR2 EB Driving Lane - Bridge Deck Dry - 41.9 - - - - 0 / 0.0 4/26/2015 2:00:24 AM
153-US-20 @ Sugar Creek (582027) Status Air Temp Sfc Temp Sub Temp Dew Temp Wind Precip Traffic Updated
Sensor [A]: Atmospheric - 41.7 - - 33.1 8.7 / N - - 4/26/2015 2:10:24 AM
Sensor [0]: US-20 EB Driving Dry - 43.7 47.3 - - - 0 / 0.0 4/26/2015 2:00:07 AM
Sensor [1]: US-20 WB Passing Dry - 43.7 - - - - 0 / 0.0 4/26/2015 2:00:07 AM
Sensor [2]: US-20 EB Driving BridgeDeck Dry - 43.7 - - - - 0 / 0.0 4/26/2015 2:00:07 AM
154-US-6 @ Sandusky River Br (582028) Status Air Temp Sfc Temp Sub Temp Dew Temp Wind Precip Traffic Updated
Sensor [A]: Atmospheric - 42.3 - - 37.2 5.0 / N - - 4/26/2015 2:00:09 AM
Sensor [0]: US-6 EB Approach Dry - 45.5 - - - - - 4/26/2015 2:00:09 AM
Sensor [1]: US-6 WB Deck Dry - 43.2 - - - - - 4/26/2015 2:00:09 AM
155-US 6 @ Pickeral Creek (582029) Status Air Temp Sfc Temp Sub Temp Dew Temp Wind Precip Traffic Updated
Sensor [A]: Atmospheric - 5.7 - - 1.2 6.2 / NE - - 4/26/2015 2:00:10 AM
Sensor [0]: US-6 WB Departure Error - - - - - - - 4/26/2015 2:00:10 AM
Sensor [1]: US-6 WB Deck Error - 8.8 - - - - - 4/26/2015 2:00:10 AM
156-CR 296 & US 20 MP 31.0 (582030) Status Air Temp Sfc Temp Sub Temp Dew Temp Wind Precip Traffic Updated
Sensor [A]: Atmospheric - 40.3 - - 36.1 11.8 / N - - 4/26/2015 2:00:13 AM
Sensor [0]: US-20 WB Dry - 44.4 55.0 - - - - 4/26/2015 2:00:13 AM
157-US 23 @ MP 5.5 Seneca (582031) Status Air Temp Sfc Temp Sub Temp Dew Temp Wind Precip Traffic Updated
Sensor [A]: Atmospheric - 41.2 - - 33.6 8.1 / N - - 4/26/2015 2:00:14 AM
Sensor [0]: US-23 NB Dry - 43.0 - - - - - 4/26/2015 2:00:14 AM
158-SR 12 @ Mp 7.0 Seneca (582032) Status Air Temp Sfc Temp Sub Temp Dew Temp Wind Precip Traffic Updated
Sensor [A]: Atmospheric - 41.0 - - 34.3 8.1 / N - - 4/26/2015 2:00:15 AM
Sensor [0]: SR-12 WB Dry - 43.7 - - - - - 4/26/2015 2:00:15 AM
159-US 224 @ SR 53 Seneca (582033) Status Air Temp Sfc Temp Sub Temp Dew Temp Wind Precip Traffic Updated
Sensor [A]: Atmospheric - 41.5 - - 32.7 2.5 / N - - 4/26/2015 2:00:16 AM
Sensor [0]: SR-224 EB Bridge Deck Dry - 41.9 - - - - - 4/26/2015 2:00:16 AM
Sensor [1]: US-224 EB Approach Dry - 43.7 - - - - - 4/26/2015 2:00:16 AM
160-SR 4 @ Aichholz Ditch near CR 8 (MM 2.4) (582034) Status Air Temp Sfc Temp Sub Temp Dew Temp Wind Precip Traffic Updated
Sensor [A]: Atmospheric - 40.1 - - 27.7 9.9 / N - - 4/26/2015 2:00:17 AM
Sensor [0]: SR-4 SB Deck Dry - 45.5 - - - - 0 / 9.9 4/26/2015 2:00:17 AM
Sensor [1]: SR-4 SB Departure Dry - 47.3 47.8 - - - 0 / 9.9 4/26/2015 2:00:17 AM
161-I-90 @ SR-252 (562000) Status Air Temp Sfc Temp Sub Temp Dew Temp Wind Precip Traffic Updated
Sensor [A]: Atmospheric - 40.8 - - 38.1 5.0 / NE - - 4/26/2015 2:10:24 AM
Sensor [0]: SR-252 NB RL over I-90 Dry - 41.9 - - - - - 4/26/2015 2:00:04 AM
Sensor [1]: I-90 WB N2 Lane Dry - 47.3 - - - - - 4/26/2015 2:00:04 AM
162-I-90 @ Abbey Rd. (562001) Status Air Temp Sfc Temp Sub Temp Dew Temp Wind Precip Traffic Updated
Sensor [A]: Atmospheric - - - - - / Unknown - - -
Sensor [0]: I-90 EB N3 Lane Wet - 74.7 82.2 - - - - 8/21/2011 12:10:14 AM
Sensor [2]: I-90 WB N3 Lane Bridge Wet - 71.8 - - - - - 8/21/2011 12:10:14 AM
163-I-90 @ E. 140th (562002) Status Air Temp Sfc Temp Sub Temp Dew Temp Wind Precip Traffic Updated
Sensor [A]: Atmospheric - 41.4 - - 38.7 1.9 / NE - - 4/26/2015 2:00:24 AM
Sensor [0]: I-90 WB N3 Lane Dry - 47.3 - - - - - 4/26/2015 2:00:24 AM
Sensor [1]: I-90 WB N3 Lane Bridge Dry - 43.7 - - - - - 4/26/2015 2:00:24 AM
Sensor [2]: I-90 EB N3 Lane Bridge Dry - 41.9 - - - - - 4/26/2015 2:00:24 AM
164-I-271 @ I-90 (562003) Status Air Temp Sfc Temp Sub Temp Dew Temp Wind Precip Traffic Updated
Sensor [A]: Atmospheric - 43.3 - - 36.7 - - - 4/26/2015 2:00:25 AM
Sensor [0]: I-271 NB TG I-90 EB Dry - 42.6 - - - - - 4/26/2015 2:00:25 AM
Sensor [1]: I-90 EB N2 Lane Bridge Dry - 47.3 - - - - - 4/26/2015 2:00:25 AM
Sensor [2]: I-271 NB TG I-90 WB Bridge Dry - 42.4 - - - - - 4/26/2015 2:00:25 AM
Sensor [3]: I-271 NB TG I-90 WB Dry - 43.7 50.9 - - - - 4/26/2015 2:00:25 AM
165-I-480 @ SR-10 (562004) Status Air Temp Sfc Temp Sub Temp Dew Temp Wind Precip Traffic Updated
Sensor [A]: Atmospheric - 41.4 - - 36.7 5.6 / NE - - 4/26/2015 2:00:27 AM
Sensor [0]: I-480 EB N2 Lane Bridge Dry - 43.7 - - - - - 4/26/2015 2:00:27 AM
Sensor [1]: I-480 WB N2 Lane Bridge Error - - - - - - - 4/26/2015 2:00:27 AM
Sensor [2]: I-480 EB N1 Lane Departure Dry - 47.3 - - - - - 4/26/2015 2:00:27 AM
166-I-71 @ Snow Rd. (562005) Status Air Temp Sfc Temp Sub Temp Dew Temp Wind Precip Traffic Updated
Sensor [A]: Atmospheric - 41.5 - - 39.9 4.3 / SE - - 4/26/2015 2:00:31 AM
Sensor [0]: I-71 NB N3 Lane Bridge Dry - 44.4 - - - - - 4/26/2015 2:00:31 AM
Sensor [1]: I-71 SB N3 Lane Bridge Dry - 44.6 - - - - - 4/26/2015 2:00:31 AM
Sensor [2]: I-71 NB N1 Lane Departure Dry - 49.1 - - - - - 4/26/2015 2:00:31 AM
167-I-77 @ I-480 (562006) Status Air Temp Sfc Temp Sub Temp Dew Temp Wind Precip Traffic Updated
Sensor [A]: Atmospheric - 43.2 - - 36.7 4.3 / N - - 4/26/2015 2:00:32 AM
Sensor [0]: I-77 NB N2L Br @ SR-17 Error - - - - - - - 4/26/2015 2:00:32 AM
Sensor [1]: I-77 SB N2L Br @ SR-17 Error - - - - - - - 4/26/2015 2:00:32 AM
Sensor [3]: I-77 NB RL Br over I-480 Dry - 43.7 - - - - - 4/26/2015 2:00:32 AM
168-I-480 N @ Miles Rd. (562007) Status Air Temp Sfc Temp Sub Temp Dew Temp Wind Precip Traffic Updated
Sensor [A]: Atmospheric - 40.3 - - 32.9 4.3 / NE - - 4/26/2015 2:10:25 AM
Sensor [0]: I-480 N WB N2 Lane Dry - 49.1 - - - - - 4/26/2015 2:00:03 AM
Sensor [1]: I-480 N WB N2 Lane Br Dry - 44.4 - - - - - 4/26/2015 2:00:03 AM
Sensor [2]: I-480 EB N2 Lane Br Dry - 49.1 - - - - - 4/26/2015 2:00:03 AM
169-I-271 @ US-322 (562008) Status Air Temp Sfc Temp Sub Temp Dew Temp Wind Precip Traffic Updated
Sensor [A]: Atmospheric - 38.7 - - 38.1 4.3 / NE - - 4/26/2015 2:00:04 AM
Sensor [0]: I-271 SB N2 Lane Br Dry - 45.5 - - - - - 4/26/2015 2:00:04 AM
Sensor [3]: I-271 NB N2 Lane Dry - 40.3 - - - - - 4/26/2015 2:00:04 AM
170-I-71 @ Drake Rd. (562009) Status Air Temp Sfc Temp Sub Temp Dew Temp Wind Precip Traffic Updated
Sensor [A]: Atmospheric - 41.2 - - 34.3 5.0 / N - - 4/26/2015 2:00:06 AM
Sensor [0]: I-71 NB N2 Lane Dry - 46.0 54.7 - - - - 4/26/2015 2:00:06 AM
Sensor [1]: I-71 NB N2 Lane Br Dry - 44.6 - - - - - 4/26/2015 2:00:06 AM
Sensor [2]: I-71 SB N2 Lane Br Dry - 45.1 - - - - - 4/26/2015 2:00:06 AM
171-I-77 @ SR-82 (562010) Status Air Temp Sfc Temp Sub Temp Dew Temp Wind Precip Traffic Updated
Sensor [A]: Atmospheric - 41.5 - - 31.6 3.7 / NE - - 4/26/2015 2:00:08 AM
Sensor [0]: I-77 NB N2 Lane Br Dry - 43.7 - - - - - 4/26/2015 2:00:08 AM
Sensor [1]: I-77 SB N2 Lane Br Dry - 45.5 - - - - - 4/26/2015 2:00:08 AM
172-US-422 @ Chagrin Blvd. (562011) Status Air Temp Sfc Temp Sub Temp Dew Temp Wind Precip Traffic Updated
Sensor [A]: Atmospheric - 42.4 - - 24.8 0.6 / SE - - 4/26/2015 2:00:10 AM
Sensor [0]: US-422 WB N2 Lane Dry - 46.4 52.7 - - - - 4/26/2015 2:00:10 AM
Sensor [1]: US-422 WB N2 Lane Br Wet - 49.1 - - - - - 4/26/2015 2:00:10 AM
Sensor [2]: US-422 EB N2 Lane Br Dry - 46.4 - - - - - 4/26/2015 2:00:10 AM
173-US-422 @ SR-44 (562012) Status Air Temp Sfc Temp Sub Temp Dew Temp Wind Precip Traffic Updated
Sensor [A]: Atmospheric - 40.8 - - 25.5 3.7 / NE - - 4/26/2015 2:00:12 AM
Sensor [0]: US-422 EB N2 Lane Bridge Dry - 49.1 - - - - - 4/26/2015 2:00:12 AM
174- SR-528 @SR-87 (562013) Status Air Temp Sfc Temp Sub Temp Dew Temp Wind Precip Traffic Updated
Sensor [A]: Atmospheric - 38.5 - - 34.0 5.6 / N - - 4/26/2015 2:10:25 AM
Sensor [0]: SR528 NB Dry - 49.1 - - - - - 4/26/2015 2:00:03 AM
175-SR-44 @ Mentor Rd. (562014) Status Air Temp Sfc Temp Sub Temp Dew Temp Wind Precip Traffic Updated
Sensor [A]: Atmospheric - 36.1 - - 36.0 - - - 4/26/2015 2:00:04 AM
Sensor [0]: SR44 NB Wet - 47.3 56.3 - - - - 4/26/2015 2:00:04 AM
176-SR-528 @ SR-166 (562015) Status Air Temp Sfc Temp Sub Temp Dew Temp Wind Precip Traffic Updated
Sensor [A]: Atmospheric - 36.9 - - 32.2 1.2 / SE - - 4/26/2015 2:00:08 AM
Sensor [1]: SR-166 WB W of SR-528 Dry - 38.3 - - - - - 4/26/2015 2:00:08 AM
177-I-90 @ Hermitage Rd. (562016) Status Air Temp Sfc Temp Sub Temp Dew Temp Wind Precip Traffic Updated
Sensor [A]: Atmospheric - 36.5 - - 36.5 1.2 / E - - 4/26/2015 2:00:10 AM
Sensor [0]: I-90 WB N2 Lane Br Dry - 43.7 - - - - - 4/26/2015 2:00:10 AM
Sensor [1]: I-90 EB N2 Lane Br Trace Moisture - 43.7 - - - - - 4/26/2015 2:00:10 AM
Sensor [2]: I90 EB Driving Lane Dry - 43.7 - - - - - 4/26/2015 2:00:10 AM
178-I-90 @ Paine Rd. (562017) Status Air Temp Sfc Temp Sub Temp Dew Temp Wind Precip Traffic Updated
Sensor [A]: Atmospheric - 34.9 - - 34.9 - - - 4/26/2015 2:00:11 AM
Sensor [0]: I-90 WB N2 Lane Br Dry - 41.9 - - - - - 4/26/2015 2:00:11 AM
Sensor [1]: I-90 EB N2 Lane Br Dry - 41.9 - - - - - 4/26/2015 2:00:11 AM
Sensor [2]: I90 EB Driving Lane Dry - 43.7 54.5 - - - - 4/26/2015 2:00:11 AM
179-US-20 @ Parmly Rd. (562018) Status Air Temp Sfc Temp Sub Temp Dew Temp Wind Precip Traffic Updated
Sensor [A]: Atmospheric - 37.4 - - 36.1 - - - 4/26/2015 2:00:13 AM
Sensor [0]: US-20 WB N2 Lane Dry - 36.5 - - - - - 4/26/2015 2:00:13 AM
180-I270 @ US33 (38015) Status Air Temp Sfc Temp Sub Temp Dew Temp Wind Precip Traffic Updated
Sensor [A]: Atmospheric - 40.1 - - 39.6 6.8 / NE - - 4/26/2015 2:10:24 AM
181-US 32 @ CR 16 Union Hill Rd (MM 24.8) (200180) Status Air Temp Sfc Temp Sub Temp Dew Temp Wind Precip Traffic Updated
Sensor [A]: Atmospheric - 42.3 - - 39.4 2.5 / E Rain / 0.0 - 4/26/2015 2:01:14 AM
Sensor [0]: US32 EB Driving Wet - 49.1 - - - - 1 / 9.9 4/26/2015 2:01:14 AM
Sensor [1]: US32 WB Driving Dry - 47.3 - - - - 4 / 9.9 4/26/2015 2:01:14 AM
182-I71 @ SR665 Grove City Outpost (200181) Status Air Temp Sfc Temp Sub Temp Dew Temp Wind Precip Traffic Updated
Sensor [A]: Atmospheric - 42.8 - - 34.3 5.6 / N - - 4/26/2015 2:02:15 AM
183-US30 @ SR68 (200182) Status Air Temp Sfc Temp Sub Temp Dew Temp Wind Precip Traffic Updated
Sensor [A]: Atmospheric - 39.4 - - 32.0 8.7 / N - - 4/26/2015 2:03:03 AM
Sensor [0]: US30 EB Driving Dry - 41.9 - - - - - 4/26/2015 2:03:03 AM
Sensor [1]: US30 WB Driving Bridgedeck Wet - 41.9 - - - - - 4/26/2015 2:03:03 AM
184-IR 71 @ Stewart Rd (MM 10) (80000) Status Air Temp Sfc Temp Sub Temp Dew Temp Wind Precip Traffic Updated
Sensor [A]: Atmospheric - 45.3 - - 40.5 9.3 / N - - 4/26/2015 2:00:15 AM
185 - SR235 @ SR67 (80001) Status Air Temp Sfc Temp Sub Temp Dew Temp Wind Precip Traffic Updated
Sensor [A]: Atmospheric - 39.2 - - 35.1 - - - 4/26/2015 2:00:17 AM
Sensor [0]: SR-67 EB Dry - 47.3 - - - - - 4/26/2015 2:00:17 AM
186-SR49 @ SR81 (200185) Status Air Temp Sfc Temp Sub Temp Dew Temp Wind Precip Traffic Updated
Sensor [A]: Atmospheric - 40.8 - - 33.4 2.5 / N - - 4/26/2015 2:03:10 AM
Sensor [0]: SR-81 EB Approach Dry - 43.7 - - - - - 4/26/2015 2:03:10 AM
Sensor [1]: SR-81 EB Bridgedeck Dry - 43.7 - - - - - 4/26/2015 2:03:10 AM
187-SR15 @ SR613 (200186) Status Air Temp Sfc Temp Sub Temp Dew Temp Wind Precip Traffic Updated
Sensor [A]: Atmospheric - 40.5 - - 34.2 5.6 / NE - - 4/26/2015 2:00:38 AM
Sensor [0]: SR15 NB Lane Dry - 42.4 - - - - - 4/26/2015 2:00:38 AM
188-SR2 @ INDIANA LINE (200187) Status Air Temp Sfc Temp Sub Temp Dew Temp Wind Precip Traffic Updated
Sensor [A]: Atmospheric - 37.0 - - 31.3 4.3 / N - - 4/26/2015 2:00:25 AM
Sensor [0]: SR2 EB Lane No Report - - - - - - - 4/26/2015 2:00:25 AM